createdAt,value
2022-09-21T00:01:31.574Z,101815.38
2022-09-21T00:04:04.285Z,101813.69
2022-09-21T00:06:35.154Z,101820.56
2022-09-21T00:09:08.275Z,101809.59
2022-09-21T00:11:37.175Z,101817.00
2022-09-21T00:14:13.225Z,101812.03
2022-09-21T00:16:43.557Z,101817.00
2022-09-21T00:19:12.026Z,101825.00
2022-09-21T00:21:39.927Z,101821.94
2022-09-21T00:24:08.315Z,101823.31
2022-09-21T00:26:35.895Z,101826.63
2022-09-21T00:29:05.276Z,101824.94
2022-09-21T00:31:33.612Z,101829.06
2022-09-21T00:34:01.325Z,101828.81
2022-09-21T00:36:29.159Z,101831.00
2022-09-21T00:39:01.808Z,101829.81
2022-09-21T00:41:33.217Z,101825.66
2022-09-21T00:44:44.897Z,101820.13
2022-09-21T00:47:39.145Z,101822.00
2022-09-21T00:50:18.035Z,101829.13
2022-09-21T00:52:57.884Z,101830.44
2022-09-21T00:55:44.821Z,101838.97
2022-09-21T00:58:26.284Z,101836.00
2022-09-21T01:00:54.410Z,101832.44
2022-09-21T01:03:21.509Z,101833.31
2022-09-21T01:05:48.863Z,101835.75
2022-09-21T01:08:18.833Z,101837.28
2022-09-21T01:11:34.464Z,101830.72
2022-09-21T01:14:41.384Z,101845.28
2022-09-21T01:17:22.884Z,101847.69
2022-09-21T01:20:23.853Z,101846.53
2022-09-21T01:23:39.982Z,101858.63
2022-09-21T01:27:04.008Z,101856.53
2022-09-21T01:30:11.158Z,101859.53
2022-09-21T01:33:17.815Z,101850.75
2022-09-21T01:35:58.025Z,101852.97
2022-09-21T01:38:44.711Z,101855.41
2022-09-21T01:41:21.604Z,101850.47
2022-09-21T01:44:03.596Z,101851.34
2022-09-21T01:46:34.064Z,101851.84
2022-09-21T01:49:15.299Z,101857.00
2022-09-21T01:51:58.262Z,101860.84
2022-09-21T01:54:43.244Z,101860.00
2022-09-21T01:57:28.411Z,101854.25
2022-09-21T02:00:01.429Z,101862.81
2022-09-21T02:02:58.654Z,101865.22
2022-09-21T02:05:32.918Z,101870.13
2022-09-21T02:08:01.471Z,101861.88
2022-09-21T02:10:55.983Z,101863.53
2022-09-21T02:13:32.595Z,101858.09
2022-09-21T02:16:08.513Z,101855.06
2022-09-21T02:19:15.821Z,101861.88
2022-09-21T02:22:25.124Z,101853.88
2022-09-21T02:25:10.855Z,101858.59
2022-09-21T02:27:55.939Z,101856.94
2022-09-21T02:30:27.530Z,101858.03
2022-09-21T02:33:41.097Z,101859.16
2022-09-21T02:36:57.090Z,101853.09
2022-09-21T02:40:01.181Z,101852.13
2022-09-21T02:42:39.225Z,101857.50
2022-09-21T02:45:27.203Z,101860.16
2022-09-21T02:48:05.428Z,101857.91
2022-09-21T02:50:55.095Z,101867.75
2022-09-21T02:53:37.096Z,101862.72
2022-09-21T02:56:11.534Z,101865.97
2022-09-21T02:58:50.261Z,101867.66
2022-09-21T03:01:20.765Z,101867.66
2022-09-21T03:03:49.170Z,101879.78
2022-09-21T03:06:16.198Z,101881.50
2022-09-21T03:08:44.264Z,101882.06
2022-09-21T03:11:11.532Z,101890.88
2022-09-21T03:13:38.832Z,101887.41
2022-09-21T03:16:07.715Z,101895.66
2022-09-21T03:18:35.356Z,101885.41
2022-09-21T03:21:03.419Z,101894.53
2022-09-21T03:23:31.050Z,101885.47
2022-09-21T03:25:58.119Z,101888.47
2022-09-21T03:28:25.578Z,101894.22
2022-09-21T03:30:53.295Z,101897.53
2022-09-21T03:33:21.853Z,101889.28
2022-09-21T03:35:49.849Z,101896.38
2022-09-21T03:38:17.605Z,101891.91
2022-09-21T03:40:49.915Z,101894.28
2022-09-21T03:43:18.840Z,101888.72
2022-09-21T03:45:46.175Z,101895.81
2022-09-21T03:48:14.060Z,101888.16
2022-09-21T03:50:41.707Z,101893.31
2022-09-21T03:53:10.184Z,101891.00
2022-09-21T03:55:37.512Z,101886.09
2022-09-21T03:58:04.870Z,101897.41
2022-09-21T04:00:32.620Z,101895.69
2022-09-21T04:03:00.289Z,101898.44
2022-09-21T04:05:27.953Z,101903.34
2022-09-21T04:07:57.050Z,101901.91
2022-09-21T04:10:32.898Z,101896.88
2022-09-21T04:13:04.403Z,101901.03
2022-09-21T04:15:31.993Z,101899.38
2022-09-21T04:17:59.409Z,101901.56
2022-09-21T04:20:26.587Z,101896.56
2022-09-21T04:22:53.559Z,101900.75
2022-09-21T04:25:20.747Z,101907.06
2022-09-21T04:27:48.088Z,101903.53
2022-09-21T04:30:16.968Z,101905.53
2022-09-21T04:32:44.927Z,101901.03
2022-09-21T04:35:11.987Z,101902.31
2022-09-21T04:37:38.975Z,101902.75
2022-09-21T04:40:08.296Z,101898.59
2022-09-21T04:42:35.536Z,101904.34
2022-09-21T04:45:02.709Z,101902.94
2022-09-21T04:47:31.528Z,101903.75
2022-09-21T04:49:58.555Z,101907.09
2022-09-21T04:52:25.698Z,101910.66
2022-09-21T04:54:53.301Z,101913.97
2022-09-21T04:57:20.369Z,101915.16
2022-09-21T04:59:47.391Z,101920.88
2022-09-21T05:02:14.545Z,101924.50
2022-09-21T05:04:41.541Z,101918.13
2022-09-21T05:07:08.515Z,101919.81
2022-09-21T05:09:54.559Z,101922.63
2022-09-21T05:12:22.182Z,101922.72
2022-09-21T05:14:52.135Z,101925.19
2022-09-21T05:17:22.756Z,101929.03
2022-09-21T05:19:51.743Z,101929.94
2022-09-21T05:22:18.838Z,101928.34
2022-09-21T05:24:46.416Z,101938.84
2022-09-21T05:27:14.053Z,101937.50
2022-09-21T05:29:42.628Z,101946.06
2022-09-21T05:33:01.530Z,101947.81
2022-09-21T05:36:05.118Z,101955.28
2022-09-21T05:38:33.260Z,101953.16
2022-09-21T05:41:01.808Z,101953.84
2022-09-21T05:43:29.301Z,101951.13
2022-09-21T05:46:35.805Z,101952.53
2022-09-21T05:49:46.597Z,101956.44
2022-09-21T05:52:38.475Z,101955.94
2022-09-21T05:56:23.900Z,101956.56
2022-09-21T05:59:53.701Z,101961.38
2022-09-21T06:02:53.307Z,101968.41
2022-09-21T06:05:21.317Z,101964.47
2022-09-21T06:07:48.314Z,101965.19
2022-09-21T06:10:16.331Z,101963.44
2022-09-21T06:12:43.430Z,101960.28
2022-09-21T06:15:17.144Z,101956.56
2022-09-21T06:17:44.308Z,101963.34
2022-09-21T06:20:11.314Z,101959.38
2022-09-21T06:22:38.277Z,101960.84
2022-09-21T06:25:06.164Z,101957.03
2022-09-21T06:27:33.143Z,101967.59
2022-09-21T06:30:00.192Z,101963.56
2022-09-21T06:32:28.711Z,101967.50
2022-09-21T06:34:55.633Z,101963.13
2022-09-21T06:37:22.650Z,101965.09
2022-09-21T06:39:49.560Z,101966.44
2022-09-21T06:42:17.282Z,101970.88
2022-09-21T06:44:44.358Z,101971.66
2022-09-21T06:47:11.266Z,101976.94
2022-09-21T06:49:42.363Z,101974.16
2022-09-21T06:52:09.742Z,101978.28
2022-09-21T06:54:36.900Z,101982.16
2022-09-21T06:57:04.032Z,101982.72
2022-09-21T06:59:31.112Z,101982.16
2022-09-21T07:01:58.676Z,101983.28
2022-09-21T07:04:26.136Z,101989.09
2022-09-21T07:06:53.247Z,101982.97
2022-09-21T07:12:10.987Z,101992.63
2022-09-21T07:14:38.355Z,101997.31
2022-09-21T07:17:05.711Z,102002.25
2022-09-21T07:19:32.635Z,102008.63
2022-09-21T07:21:59.667Z,102009.44
2022-09-21T07:24:26.584Z,102008.88
2022-09-21T07:26:53.517Z,102006.31
2022-09-21T07:29:20.550Z,102009.00
2022-09-21T07:31:48.502Z,102001.44
2022-09-21T07:34:15.507Z,102002.78
2022-09-21T07:36:43.107Z,101997.69
2022-09-21T07:39:11.282Z,102008.06
2022-09-21T07:41:38.975Z,102017.97
2022-09-21T07:44:06.095Z,102015.44
2022-09-21T07:46:33.166Z,102007.34
2022-09-21T07:49:00.118Z,102003.69
2022-09-21T07:51:27.106Z,102011.47
2022-09-21T07:53:57.251Z,102008.81
2022-09-21T07:56:25.489Z,102009.28
2022-09-21T07:59:07.665Z,102010.78
2022-09-21T08:01:42.227Z,102015.28
2022-09-21T08:04:11.480Z,102015.47
2022-09-21T08:06:42.431Z,102016.28
2022-09-21T08:09:09.461Z,102015.00
2022-09-21T08:11:37.831Z,102020.56
2022-09-21T08:14:05.578Z,102011.38
2022-09-21T08:16:34.076Z,102018.28
2022-09-21T08:19:02.274Z,102018.00
2022-09-21T08:21:29.136Z,102016.94
2022-09-21T08:23:56.123Z,102025.53
2022-09-21T08:26:23.960Z,102021.41
2022-09-21T08:28:53.900Z,102017.13
2022-09-21T08:31:24.551Z,102020.34
2022-09-21T08:33:55.204Z,102015.47
2022-09-21T08:36:22.147Z,102022.16
2022-09-21T08:38:49.230Z,102021.00
2022-09-21T08:41:48.053Z,102021.63
2022-09-21T08:44:54.309Z,102019.38
2022-09-21T08:47:43.858Z,102021.91
2022-09-21T08:50:46.705Z,102021.81
2022-09-21T08:53:45.790Z,102029.41
2022-09-21T08:56:16.229Z,102026.41
2022-09-21T08:58:43.962Z,102021.09
2022-09-21T09:01:31.985Z,102027.59
2022-09-21T09:05:01.589Z,102025.59
2022-09-21T09:08:21.817Z,102030.72
2022-09-21T09:11:46.789Z,102026.19
2022-09-21T09:15:33.474Z,102025.28
2022-09-21T09:18:43.419Z,102030.13
2022-09-21T09:21:31.906Z,102035.09
2022-09-21T09:24:31.829Z,102027.16
2022-09-21T09:27:19.314Z,102030.75
2022-09-21T09:30:05.071Z,102032.06
2022-09-21T09:32:53.369Z,102033.50
2022-09-21T09:35:51.721Z,102030.69
2022-09-21T09:38:56.316Z,102040.38
2022-09-21T09:42:15.832Z,102033.53
2022-09-21T09:45:16.302Z,102037.00
2022-09-21T09:48:53.309Z,102032.41
2022-09-21T09:51:21.253Z,102038.31
2022-09-21T09:53:48.344Z,102041.22
2022-09-21T09:56:15.459Z,102037.88
2022-09-21T09:59:08.208Z,102037.88
2022-09-21T10:01:58.115Z,102036.06
2022-09-21T10:04:25.416Z,102036.81
2022-09-21T10:06:52.414Z,102035.84
2022-09-21T10:09:35.637Z,102045.28
2022-09-21T10:12:25.542Z,102034.69
2022-09-21T10:15:00.868Z,102038.88
2022-09-21T10:17:28.354Z,102035.19
2022-09-21T10:20:06.508Z,102030.25
2022-09-21T10:22:33.570Z,102020.81
2022-09-21T10:25:05.282Z,102015.06
2022-09-21T10:27:45.334Z,102023.78
2022-09-21T10:30:38.861Z,102027.88
2022-09-21T10:33:22.185Z,102034.28
2022-09-21T10:35:53.115Z,102017.03
2022-09-21T10:38:30.703Z,102023.13
2022-09-21T10:40:58.166Z,102015.88
2022-09-21T10:43:45.954Z,102016.88
2022-09-21T10:46:14.643Z,102001.53
2022-09-21T10:48:46.894Z,102005.94
2022-09-21T10:51:31.927Z,102000.22
2022-09-21T10:53:59.107Z,102009.44
2022-09-21T10:56:26.642Z,102004.84
2022-09-21T10:59:25.568Z,102007.00
2022-09-21T11:01:58.669Z,102005.19
2022-09-21T11:04:48.599Z,101994.81
2022-09-21T11:07:27.375Z,102000.06
2022-09-21T11:10:44.977Z,102003.84
2022-09-21T11:13:35.371Z,101999.38
2022-09-21T11:16:35.125Z,102003.31
2022-09-21T11:19:42.534Z,101997.25
2022-09-21T11:22:43.250Z,101993.47
2022-09-21T11:25:24.923Z,101993.63
2022-09-21T11:28:26.045Z,101987.41
2022-09-21T11:32:06.067Z,101999.22
2022-09-21T11:35:15.347Z,101993.97
2022-09-21T11:38:39.872Z,102000.34
2022-09-21T11:41:39.019Z,101993.97
2022-09-21T11:44:27.846Z,102000.34
2022-09-21T11:47:46.901Z,101991.38
2022-09-21T11:50:46.461Z,101989.19
2022-09-21T11:54:37.801Z,101978.50
2022-09-21T11:57:23.163Z,101980.59
2022-09-21T12:00:15.792Z,101981.28
2022-09-21T12:03:55.017Z,101981.97
2022-09-21T12:06:56.141Z,101958.06
2022-09-21T12:10:08.938Z,101970.91
2022-09-21T12:13:04.560Z,101965.13
2022-09-21T12:16:03.035Z,101973.91
2022-09-21T12:19:00.846Z,101974.72
2022-09-21T12:22:09.707Z,101963.53
2022-09-21T12:24:59.239Z,101961.91
2022-09-21T12:27:36.593Z,101962.34
2022-09-21T12:30:19.528Z,101955.75
2022-09-21T12:32:53.511Z,101957.25
2022-09-21T12:36:02.337Z,101961.50
2022-09-21T12:38:59.584Z,101962.69
2022-09-21T12:41:52.338Z,101956.94
2022-09-21T12:44:53.490Z,101958.94
2022-09-21T12:48:29.434Z,101948.72
2022-09-21T12:51:29.700Z,101948.09
2022-09-21T12:54:12.362Z,101950.53
2022-09-21T12:57:42.709Z,101946.59
2022-09-21T13:00:19.801Z,101947.75
2022-09-21T13:03:40.541Z,101949.22
2022-09-21T13:06:57.723Z,101943.09
2022-09-21T13:09:31.140Z,101936.56
2022-09-21T13:12:17.421Z,101941.94
2022-09-21T13:15:03.205Z,101934.50
2022-09-21T13:17:34.004Z,101946.03
2022-09-21T13:20:22.675Z,101936.91
2022-09-21T13:23:01.753Z,101937.47
2022-09-21T13:25:37.914Z,101935.91
2022-09-21T13:28:13.666Z,101934.75
2022-09-21T13:34:32.557Z,101942.13
2022-09-21T13:37:20.653Z,101943.06
2022-09-21T13:40:03.271Z,101932.50
2022-09-21T13:42:33.271Z,101939.66
2022-09-21T13:45:24.744Z,101941.81
2022-09-21T13:48:00.359Z,101938.28
2022-09-21T13:50:43.318Z,101937.69
2022-09-21T13:53:40.264Z,101937.38
2022-09-21T13:56:20.991Z,101934.03
2022-09-21T13:58:57.383Z,101931.44
2022-09-21T14:01:46.633Z,101921.44
2022-09-21T14:04:37.739Z,101917.34
2022-09-21T14:07:08.688Z,101914.66
2022-09-21T14:10:00.948Z,101922.75
2022-09-21T14:12:45.526Z,101915.50
2022-09-21T14:15:19.576Z,101917.06
2022-09-21T14:18:38.138Z,101918.00
2022-09-21T14:21:19.030Z,101916.75
2022-09-21T14:24:07.931Z,101919.69
2022-09-21T14:26:41.278Z,101913.66
2022-09-21T14:29:53.208Z,101914.19
2022-09-21T14:32:33.675Z,101912.00
2022-09-21T14:35:19.181Z,101913.75
2022-09-21T14:37:57.923Z,101901.88
2022-09-21T14:40:39.217Z,101911.22
2022-09-21T14:43:22.042Z,101899.06
2022-09-21T14:46:40.623Z,101908.44
2022-09-21T14:49:34.960Z,101899.13
2022-09-21T14:53:11.436Z,101902.25
2022-09-21T14:56:58.302Z,101895.00
2022-09-21T15:00:24.608Z,101889.81
2022-09-21T15:03:30.782Z,101893.44
2022-09-21T15:06:38.256Z,101895.31
2022-09-21T15:10:24.205Z,101890.59
2022-09-21T15:13:10.523Z,101887.53
2022-09-21T15:16:26.271Z,101884.63
2022-09-21T15:19:24.819Z,101886.00
2022-09-21T15:22:17.312Z,101880.03
2022-09-21T15:24:56.860Z,101883.97
2022-09-21T15:27:33.509Z,101877.03
2022-09-21T15:30:06.422Z,101873.22
2022-09-21T15:32:46.603Z,101874.72
2022-09-21T15:35:27.843Z,101874.56
2022-09-21T15:38:00.886Z,101872.28
2022-09-21T15:40:46.211Z,101870.69
2022-09-21T15:43:15.897Z,101872.78
2022-09-21T15:46:00.917Z,101865.03
2022-09-21T15:48:38.381Z,101870.47
2022-09-21T15:51:31.885Z,101874.66
2022-09-21T15:54:21.308Z,101875.31
2022-09-21T15:56:48.642Z,101875.84
2022-09-21T15:59:22.310Z,101866.63
2022-09-21T16:01:55.872Z,101880.22
2022-09-21T16:04:28.046Z,101882.00
2022-09-21T16:07:34.416Z,101874.72
2022-09-21T16:10:24.172Z,101887.31
2022-09-21T16:12:51.298Z,101883.91
2022-09-21T16:15:22.429Z,101887.78
2022-09-21T16:18:06.944Z,101879.47
2022-09-21T16:20:48.041Z,101891.16
2022-09-21T16:23:24.365Z,101897.72
2022-09-21T16:26:01.720Z,101888.78
2022-09-21T16:28:42.172Z,101896.38
2022-09-21T16:31:36.341Z,101889.91
2022-09-21T16:34:36.999Z,101896.00
2022-09-21T16:37:24.339Z,101892.06
2022-09-21T16:39:54.401Z,101899.22
2022-09-21T16:42:27.978Z,101899.72
2022-09-21T16:44:55.905Z,101892.44
2022-09-21T16:47:27.290Z,101899.56
2022-09-21T16:50:01.593Z,101895.34
2022-09-21T16:52:30.775Z,101892.50
2022-09-21T16:54:58.917Z,101891.88
2022-09-21T16:57:26.661Z,101897.63
2022-09-21T16:59:53.692Z,101892.78
2022-09-21T17:02:21.056Z,101898.22
2022-09-21T17:04:48.247Z,101900.06
2022-09-21T17:07:20.126Z,101903.03
2022-09-21T17:09:48.292Z,101899.59
2022-09-21T17:12:19.068Z,101907.50
2022-09-21T17:14:47.346Z,101905.09
2022-09-21T17:17:24.391Z,101910.22
2022-09-21T17:19:54.254Z,101909.47
2022-09-21T17:22:21.988Z,101905.97
2022-09-21T17:24:52.849Z,101909.13
2022-09-21T17:27:26.795Z,101907.84
2022-09-21T17:29:55.361Z,101911.81
2022-09-21T17:32:24.791Z,101905.81
2022-09-21T17:35:41.861Z,101909.53
2022-09-21T17:38:12.597Z,101910.22
2022-09-21T17:40:43.087Z,101911.94
2022-09-21T17:43:50.194Z,101919.81
2022-09-21T17:46:50.514Z,101918.47
2022-09-21T17:49:18.867Z,101912.47
2022-09-21T17:52:04.881Z,101909.44
2022-09-21T17:54:32.220Z,101927.81
2022-09-21T17:57:49.135Z,101918.22
2022-09-21T18:00:28.743Z,101919.06
2022-09-21T18:02:56.177Z,101927.19
2022-09-21T18:05:30.365Z,101922.00
2022-09-21T18:07:58.409Z,101930.94
2022-09-21T18:10:27.213Z,101930.97
2022-09-21T18:13:24.107Z,101928.00
2022-09-21T18:16:46.227Z,101926.75
2022-09-21T18:20:03.219Z,101931.28
2022-09-21T18:23:14.181Z,101938.56
2022-09-21T18:25:49.204Z,101937.47
2022-09-21T18:28:42.251Z,101938.63
2022-09-21T18:31:43.275Z,101937.28
2022-09-21T18:34:41.735Z,101937.31
2022-09-21T18:37:26.569Z,101938.19
2022-09-21T18:40:35.713Z,101947.34
2022-09-21T18:43:55.395Z,101951.84
2022-09-21T18:46:50.838Z,101946.38
2022-09-21T18:50:15.174Z,101955.28
2022-09-21T18:53:11.674Z,101949.47
2022-09-21T18:55:39.242Z,101948.09
2022-09-21T18:58:06.634Z,101943.44
2022-09-21T19:00:35.440Z,101946.53
2022-09-21T19:03:17.698Z,101948.19
2022-09-21T19:06:45.831Z,101946.84
2022-09-21T19:09:41.132Z,101943.56
2022-09-21T19:13:00.210Z,101938.59
2022-09-21T19:16:00.939Z,101946.06
2022-09-21T19:19:07.350Z,101940.56
2022-09-21T19:22:10.464Z,101939.22
2022-09-21T19:24:58.738Z,101943.91
2022-09-21T19:27:39.821Z,101943.94
2022-09-21T19:30:14.156Z,101954.50
2022-09-21T19:32:58.391Z,101949.78
2022-09-21T19:35:28.837Z,101951.44
2022-09-21T19:38:04.021Z,101952.56
2022-09-21T19:40:37.253Z,101945.94
2022-09-21T19:43:35.553Z,101952.56
2022-09-21T19:46:50.330Z,101940.69
2022-09-21T19:49:20.935Z,101944.28
2022-09-21T19:51:58.490Z,101949.00
2022-09-21T19:54:44.735Z,101950.41
2022-09-21T19:57:42.365Z,101961.47
2022-09-21T20:00:16.760Z,101959.25
2022-09-21T20:03:26.029Z,101956.75
2022-09-21T20:06:20.359Z,101953.16
2022-09-21T20:09:29.157Z,101955.13
2022-09-21T20:12:11.017Z,101957.59
2022-09-21T20:15:22.578Z,101962.88
2022-09-21T20:18:03.389Z,101962.84
2022-09-21T20:20:31.176Z,101963.16
2022-09-21T20:23:00.313Z,101957.63
2022-09-21T20:25:51.574Z,101961.47
2022-09-21T20:28:19.093Z,101960.38
2022-09-21T20:30:46.640Z,101960.94
2022-09-21T20:33:22.704Z,101954.88
2022-09-21T20:35:55.390Z,101955.13
2022-09-21T20:38:23.698Z,101960.66
2022-09-21T20:40:51.689Z,101960.09
2022-09-21T20:43:19.693Z,101955.66
2022-09-21T20:45:49.440Z,101967.28
2022-09-21T20:48:17.274Z,101955.94
2022-09-21T20:50:50.685Z,101957.31
2022-09-21T20:53:19.364Z,101957.06
2022-09-21T20:56:03.753Z,101955.09
2022-09-21T20:58:31.016Z,101951.25
2022-09-21T21:01:08.817Z,101950.41
2022-09-21T21:03:36.551Z,101953.16
2022-09-21T21:06:20.710Z,101957.59
2022-09-21T21:08:48.018Z,101958.44
2022-09-21T21:11:14.932Z,101962.84
2022-09-21T21:13:42.607Z,101961.44
2022-09-21T21:16:12.363Z,101968.94
2022-09-21T21:18:43.458Z,101962.81
2022-09-21T21:21:10.480Z,101974.44
2022-09-21T21:23:56.236Z,101971.13
2022-09-21T21:26:38.268Z,101974.44
2022-09-21T21:29:13.690Z,101966.44
2022-09-21T21:31:41.292Z,101970.56
2022-09-21T21:34:08.431Z,101970.03
2022-09-21T21:36:35.434Z,101963.09
2022-09-21T21:39:02.413Z,101963.38
2022-09-21T21:41:31.229Z,101964.47
2022-09-21T21:43:58.787Z,101960.59
2022-09-21T21:46:29.848Z,101966.94
2022-09-21T21:48:56.886Z,101962.50
2022-09-21T21:51:23.833Z,101956.41
2022-09-21T21:53:51.232Z,101960.00
2022-09-21T21:56:20.315Z,101958.88
2022-09-21T21:58:47.296Z,101964.41
2022-09-21T22:01:20.947Z,101964.16
2022-09-21T22:03:58.181Z,101953.13
2022-09-21T22:06:28.021Z,101953.13
2022-09-21T22:08:57.497Z,101950.09
2022-09-21T22:11:27.568Z,101957.81
2022-09-21T22:13:55.742Z,101953.94
2022-09-21T22:16:25.946Z,101949.81
2022-09-21T22:18:53.584Z,101947.03
2022-09-21T22:21:31.782Z,101953.97
2022-09-21T22:24:04.346Z,101949.81
2022-09-21T22:26:38.616Z,101949.78
2022-09-21T22:29:09.593Z,101944.56
2022-09-21T22:31:42.862Z,101949.00
2022-09-21T22:34:12.591Z,101942.63
2022-09-21T22:36:40.818Z,101945.69
2022-09-21T22:39:09.316Z,101955.91
2022-09-21T22:41:41.827Z,101960.09
2022-09-21T22:44:11.615Z,101950.13
2022-09-21T22:46:39.058Z,101952.34
2022-09-21T22:49:06.687Z,101953.16
2022-09-21T22:51:35.570Z,101948.44
2022-09-21T22:54:02.809Z,101956.50
2022-09-21T22:56:33.646Z,101956.22
2022-09-21T22:59:04.580Z,101948.72
2022-09-21T23:01:37.761Z,101943.47
2022-09-21T23:04:13.236Z,101943.22
2022-09-21T23:06:45.301Z,101938.78
2022-09-21T23:09:21.079Z,101950.41
2022-09-21T23:11:54.341Z,101950.16
2022-09-21T23:14:23.491Z,101949.28
2022-09-21T23:16:50.945Z,101947.94
2022-09-21T23:19:17.926Z,101950.94
2022-09-21T23:21:49.914Z,101948.19
2022-09-21T23:24:19.308Z,101944.88
2022-09-21T23:26:47.973Z,101945.69
2022-09-21T23:29:16.310Z,101944.88
2022-09-21T23:31:45.758Z,101942.97
2022-09-21T23:34:15.199Z,101942.94
2022-09-21T23:36:45.167Z,101951.25
2022-09-21T23:39:15.727Z,101954.00
2022-09-21T23:41:43.943Z,101957.88
2022-09-21T23:44:11.413Z,101939.63
2022-09-21T23:46:40.426Z,101941.81
2022-09-21T23:49:08.424Z,101944.88
2022-09-21T23:51:36.584Z,101943.47
2022-09-21T23:54:04.053Z,101948.44
2022-09-21T23:56:31.876Z,101947.06
2022-09-21T23:59:00.141Z,101945.13
